La Habra, CA

4:45 AM PDT on August 25, 2016 (GMT -0700)
| | Change Station

Elev -9999 ft 0.00 °N, 0.00 °E | Updated

Clear
Clear
68 °F
Feels Like 68 °F
N
2
Wind Variable Wind from South
Gusts mph

Today
High -- | Low -- °F
--% Chance of Precip.
Yesterday
High -- | Low -- °F
Precip. -- in
Pressure 29.93 in
Visibility 10.0 miles
Clouds Mostly Cloudy 1300 ft
Dew Point 61 °F
Humidity 76%
Rainfall --
Snow Depth Not available.
6:21 AM 7:25 PM
Last Quarter, 46% visible
SPECI KFUL 251114Z 14004KT 10SM BKN013 20/16 A2993 RMK AO2 T02000161
Pressure 29.93 in
Visibility 10.0 miles
Clouds Mostly Cloudy 1300 ft
Dew Point 61 °F
Humidity 76%
Rainfall --
Snow Depth Not available.
6:21 AM 7:25 PM
Last Quarter, 46% visible
SPECI KFUL 251114Z 14004KT 10SM BKN013 20/16 A2993 RMK AO2 T02000161

10-Day Weather Forecast

Almanac

Astronomy

Aug. 25, 2016 Rise Set
Actual Time
Civil Twilight
Nautical Twilight
Astronomical Twilight
Moon
Length of Visible Light
Length of Day
Tomorrow will be .
, % of the Moon is Illuminated

Today's Extremes

State Highs State Lows

Community

WunderPhotos

Upload Photos

1,934,821 photos uploaded!

WunderBlog® & News

Nearby

Air Quality

  Air Quality AQ Index Pollutant
Not available.

Snow Depth

Station Depth Elevation

Earthquake Activity

City Distance Mag. Time & Date
Minimum magnitude displayed is 2.5.

Coastal Water Temperatures

Place Temperature

Stations

Nearby Weather Stations

Station Location Temp. Windchill Dew Point Humidity Wind Precip. Elev Updated Type
                   

Watches & Warnings

There are currently no watches in effect.